ESMK/KID METAR and TAF weather

Enter ICAO airport designator
Station Type Date Time Source
ESMK METAR 2018/09/21 23:20 UTC NOAA

ESMK 212320Z AUTO 23017KT 9999 NCD 12/07 Q1001


Station Type Date Time Source
ESMK Decoded METAR 2018/09/21 23:20 UTC NOAA

Kristianstad / Everod, Sweden (ESMK) 55-55N 014-05E
Sep 21, 2018 - 07:20 PM EDT / 2018.09.21 2320 UTC
Wind: from the SW (230 degrees) at 20 MPH (17 KT):0
Visibility: greater than 7 mile(s):0
Temperature: 53 F (12 C)
Dew Point: 44 F (7 C)
Relative Humidity: 71%
Pressure (altimeter): 29.56 in. Hg (1001 hPa)
ob: ESMK 212320Z AUTO 23017KT 9999 NCD 12/07 Q1001
cycle: 23

Station Type Date Time Source
ESMK TAF 2015/03/18 12:33 UTC NOAA

TAF ESMK 181130Z 1812/1824 13012KT CAVOK


Example: see airport list